Time;durP1;ratioP1;P1;durP2;ratioP2;P2;SDS_P1;SDS_P2;PMS_P1;PMS_P2;Temp;Humidity;BMP_temperature;BMP_pressure;BME280_temperature;BME280_humidity;BME280_pressure;Samples;Min_cycle;Max_cycle;Signal;HPM_P1;HPM_P2
2023/08/16 00:00:05;;;;;;;6.37;5.77;;;19.00;99.90;;;;;;5088212;28;20449;-63
2023/08/16 00:02:32;;;;;;;7.00;6.40;;;19.10;99.90;;;;;;5087778;28;20920;-63
2023/08/16 00:04:58;;;;;;;6.13;5.73;;;19.00;99.90;;;;;;5088295;28;20562;-63
2023/08/16 00:07:26;;;;;;;6.20;5.70;;;19.00;99.90;;;;;;5087696;28;20816;-62
2023/08/16 00:09:53;;;;;;;6.60;6.10;;;18.90;99.90;;;;;;5088104;28;20446;-63
2023/08/16 00:12:21;;;;;;;5.90;5.47;;;18.90;99.90;;;;;;5087810;28;20499;-63
2023/08/16 00:14:48;;;;;;;5.83;5.43;;;18.90;99.90;;;;;;5087979;28;20503;-62
2023/08/16 00:17:15;;;;;;;6.20;5.60;;;18.90;99.90;;;;;;5086789;28;20435;-63
2023/08/16 00:19:42;;;;;;;6.03;5.50;;;18.90;99.90;;;;;;5088166;28;20451;-63
2023/08/16 00:22:09;;;;;;;7.37;6.83;;;18.90;99.90;;;;;;5087743;28;20527;-59
2023/08/16 00:24:36;;;;;;;9.07;6.40;;;18.80;99.90;;;;;;5087907;28;20449;-62
2023/08/16 00:27:03;;;;;;;6.97;6.20;;;18.80;99.90;;;;;;5086695;28;20441;-63
2023/08/16 00:29:31;;;;;;;7.20;6.50;;;18.80;99.90;;;;;;5087734;28;20957;-63
2023/08/16 00:32:00;;;;;;;7.13;6.43;;;18.80;99.90;;;;;;5087079;28;20494;-62
2023/08/16 00:34:28;;;;;;;6.33;5.73;;;18.70;99.90;;;;;;5087936;28;20510;-63
2023/08/16 00:36:54;;;;;;;5.97;5.57;;;18.70;99.90;;;;;;5086819;28;20474;-63
2023/08/16 00:39:21;;;;;;;6.80;6.20;;;18.70;99.90;;;;;;5087579;28;20449;-63
2023/08/16 00:41:48;;;;;;;7.23;6.63;;;18.70;99.90;;;;;;5087211;28;20457;-62
2023/08/16 00:44:15;;;;;;;7.13;6.40;;;18.70;99.90;;;;;;5087002;28;20449;-63
2023/08/16 00:46:43;;;;;;;8.50;6.47;;;18.70;99.90;;;;;;5086714;28;20462;-62
2023/08/16 00:49:10;;;;;;;10.63;6.03;;;18.60;99.90;;;;;;5087809;28;20827;-63
2023/08/16 00:51:38;;;;;;;7.47;6.77;;;18.60;99.90;;;;;;5087683;28;20837;-62
2023/08/16 00:54:06;;;;;;;6.77;5.80;;;18.60;99.90;;;;;;5088058;28;21010;-63
2023/08/16 00:56:33;;;;;;;9.13;7.00;;;18.60;99.90;;;;;;5086968;28;20442;-62
2023/08/16 00:59:00;;;;;;;7.70;6.13;;;18.50;99.90;;;;;;5087725;28;20945;-63
2023/08/16 01:01:27;;;;;;;7.60;6.33;;;18.50;99.90;;;;;;5088063;28;20475;-62
2023/08/16 01:03:56;;;;;;;6.37;5.73;;;18.50;99.90;;;;;;5087926;28;20460;-62
2023/08/16 01:06:23;;;;;;;6.40;5.87;;;18.50;99.90;;;;;;5086242;28;21145;-62
2023/08/16 01:08:50;;;;;;;6.33;5.83;;;18.50;99.90;;;;;;5088058;28;20445;-62
2023/08/16 01:11:23;;;;;;;7.10;6.10;;;18.50;99.90;;;;;;5086795;28;20971;-62
2023/08/16 01:13:55;;;;;;;7.20;6.47;;;18.50;99.90;;;;;;5087938;28;20869;-62
2023/08/16 01:16:24;;;;;;;6.47;5.47;;;18.50;99.90;;;;;;5086954;28;20759;-63
2023/08/16 01:18:52;;;;;;;7.47;6.77;;;18.40;99.90;;;;;;5088068;28;20908;-62
2023/08/16 01:21:21;;;;;;;7.20;6.03;;;18.40;99.90;;;;;;5087871;28;20473;-63
2023/08/16 01:24:00;;;;;;;5.70;5.30;;;18.40;99.90;;;;;;5087589;28;20452;-62
2023/08/16 01:26:31;;;;;;;8.43;6.30;;;18.30;99.90;;;;;;5087254;28;20457;-62
2023/08/16 01:28:59;;;;;;;6.67;6.17;;;18.30;99.90;;;;;;5087843;28;20449;-63
2023/08/16 01:31:27;;;;;;;7.03;5.97;;;18.30;99.90;;;;;;5088078;28;20495;-62
2023/08/16 01:33:54;;;;;;;7.10;6.60;;;18.30;99.90;;;;;;5088178;28;20491;-63
2023/08/16 01:36:21;;;;;;;7.10;6.40;;;18.20;99.90;;;;;;5087143;28;20798;-62
2023/08/16 01:38:48;;;;;;;6.47;5.70;;;18.20;99.90;;;;;;5087873;28;20453;-63
2023/08/16 01:41:21;;;;;;;6.03;5.63;;;18.20;99.90;;;;;;5087395;28;20463;-62
2023/08/16 01:43:50;;;;;;;9.03;6.00;;;18.20;99.90;;;;;;5087378;28;20945;-62
2023/08/16 01:46:18;;;;;;;6.17;5.77;;;18.20;99.90;;;;;;5087046;28;20452;-63
2023/08/16 01:48:47;;;;;;;6.30;5.80;;;18.20;99.90;;;;;;5087649;28;20453;-64
2023/08/16 01:51:15;;;;;;;7.83;7.13;;;18.10;99.90;;;;;;5087372;28;20446;-62
2023/08/16 01:53:42;;;;;;;7.13;6.37;;;18.10;99.90;;;;;;5087611;28;20495;-62
2023/08/16 01:56:09;;;;;;;6.60;6.10;;;18.10;99.90;;;;;;5086811;28;21161;-62
2023/08/16 01:58:35;;;;;;;7.33;6.77;;;18.10;99.90;;;;;;5089918;28;20453;-63
2023/08/16 02:01:04;;;;;;;8.30;6.83;;;18.10;99.90;;;;;;5091353;28;20455;-62
2023/08/16 02:03:32;;;;;;;7.30;6.63;;;18.10;99.90;;;;;;5091201;28;20445;-62
2023/08/16 02:05:59;;;;;;;7.33;6.63;;;18.00;99.90;;;;;;5090618;28;20514;-63
2023/08/16 02:08:25;;;;;;;7.77;6.40;;;18.00;99.90;;;;;;5091285;28;20449;-62
2023/08/16 02:10:52;;;;;;;7.77;7.07;;;18.00;99.90;;;;;;5090428;28;21107;-62
2023/08/16 02:13:19;;;;;;;6.77;6.20;;;18.00;99.90;;;;;;5090780;28;21014;-63
2023/08/16 02:15:46;;;;;;;7.30;6.67;;;18.00;99.90;;;;;;5091060;28;20448;-63
2023/08/16 02:18:14;;;;;;;7.00;6.50;;;18.00;99.90;;;;;;5090496;28;20817;-61
2023/08/16 02:20:42;;;;;;;7.83;7.17;;;18.00;99.90;;;;;;5090757;28;20450;-63
2023/08/16 02:23:09;;;;;;;7.47;6.77;;;17.90;99.90;;;;;;5090980;28;20560;-62
2023/08/16 02:25:36;;;;;;;6.70;6.10;;;17.90;99.90;;;;;;5090920;28;20892;-60
2023/08/16 02:28:03;;;;;;;7.40;6.37;;;17.90;99.90;;;;;;5090060;28;20464;-63
2023/08/16 02:30:30;;;;;;;7.50;6.33;;;17.90;99.90;;;;;;5090594;28;20540;-63
2023/08/16 02:32:57;;;;;;;7.13;6.40;;;17.90;99.90;;;;;;5090332;28;20496;-63
2023/08/16 02:35:26;;;;;;;7.30;6.70;;;17.80;99.90;;;;;;5090734;28;20543;-62
2023/08/16 02:37:52;;;;;;;7.30;6.80;;;17.90;99.90;;;;;;5089186;28;20842;-62
2023/08/16 02:40:19;;;;;;;7.27;6.67;;;17.90;99.90;;;;;;5090662;28;20445;-63
2023/08/16 02:42:49;;;;;;;7.93;7.33;;;17.90;99.90;;;;;;5079390;28;20501;-63
2023/08/16 02:45:16;;;;;;;7.33;6.40;;;17.80;99.90;;;;;;5070599;28;20454;-62
2023/08/16 02:47:43;;;;;;;7.10;6.60;;;17.80;99.90;;;;;;5069513;28;20447;-60
2023/08/16 02:50:10;;;;;;;6.87;6.17;;;17.80;99.90;;;;;;5070210;28;20446;-63
2023/08/16 02:52:38;;;;;;;7.33;6.73;;;17.80;99.90;;;;;;5070128;28;20494;-61
2023/08/16 02:55:05;;;;;;;6.70;6.17;;;17.80;99.90;;;;;;5070267;28;21276;-63
2023/08/16 02:57:32;;;;;;;7.13;6.43;;;17.80;99.90;;;;;;5072453;28;20536;-62
2023/08/16 02:59:59;;;;;;;8.43;7.57;;;17.70;99.90;;;;;;5085759;28;20446;-61
2023/08/16 03:02:27;;;;;;;6.63;6.13;;;17.70;99.90;;;;;;5069786;28;20566;-62
2023/08/16 03:04:54;;;;;;;6.87;6.30;;;17.70;99.90;;;;;;5070003;28;20455;-62
2023/08/16 03:07:21;;;;;;;6.50;5.90;;;17.70;99.90;;;;;;5069243;28;20557;-63
2023/08/16 03:09:49;;;;;;;7.30;6.60;;;17.70;99.90;;;;;;5069599;28;20450;-63
2023/08/16 03:12:16;;;;;;;7.87;7.27;;;17.70;99.90;;;;;;5069718;28;20471;-61
2023/08/16 03:14:43;;;;;;;15.23;7.27;;;17.70;99.90;;;;;;5069577;28;20454;-63
2023/08/16 03:17:10;;;;;;;6.73;6.13;;;17.70;99.90;;;;;;5069081;28;20450;-61
2023/08/16 03:19:37;;;;;;;8.10;6.47;;;17.70;99.90;;;;;;5069737;28;20454;-62
2023/08/16 03:22:04;;;;;;;10.13;6.40;;;17.70;99.90;;;;;;5069631;28;20470;-61
2023/08/16 03:24:31;;;;;;;8.53;7.90;;;17.70;99.90;;;;;;5069634;28;20471;-61
2023/08/16 03:26:59;;;;;;;5.93;5.43;;;17.70;99.90;;;;;;5068611;28;20456;-62
2023/08/16 03:29:26;;;;;;;7.47;6.80;;;17.70;99.90;;;;;;5069243;28;20981;-62
2023/08/16 03:31:53;;;;;;;7.00;6.40;;;17.70;99.90;;;;;;5065890;28;20482;-62
2023/08/16 03:34:20;;;;;;;7.50;6.73;;;17.70;99.90;;;;;;5069508;28;20487;-62
2023/08/16 03:36:46;;;;;;;6.10;5.70;;;17.70;99.90;;;;;;5068794;28;20547;-61
2023/08/16 03:39:14;;;;;;;6.60;6.10;;;17.70;99.90;;;;;;5069602;28;20458;-62
2023/08/16 03:41:40;;;;;;;6.97;6.47;;;17.70;99.90;;;;;;5069276;28;20480;-62
2023/08/16 03:44:09;;;;;;;6.33;5.83;;;17.70;99.90;;;;;;5069236;28;20461;-62
2023/08/16 03:46:36;;;;;;;6.77;6.20;;;17.70;99.90;;;;;;5068639;28;20451;-61
2023/08/16 03:49:02;;;;;;;7.40;6.40;;;17.70;99.90;;;;;;5069143;28;20492;-62
2023/08/16 03:51:29;;;;;;;6.33;5.77;;;17.70;99.90;;;;;;5068827;28;20469;-62
2023/08/16 03:53:56;;;;;;;7.13;6.53;;;17.70;99.90;;;;;;5069062;28;20618;-62
2023/08/16 03:56:22;;;;;;;6.90;6.20;;;17.70;99.90;;;;;;5067949;28;20458;-62
2023/08/16 03:58:49;;;;;;;7.43;6.73;;;17.70;99.90;;;;;;5078813;28;20479;-62
2023/08/16 04:01:18;;;;;;;7.70;7.20;;;17.70;99.90;;;;;;5082165;28;20449;-62
2023/08/16 04:03:46;;;;;;;7.80;7.03;;;17.70;99.90;;;;;;5068881;28;20458;-62
2023/08/16 04:06:13;;;;;;;9.27;8.37;;;17.70;99.90;;;;;;5067979;28;20838;-62
2023/08/16 04:08:40;;;;;;;9.17;8.27;;;17.70;99.90;;;;;;5068713;28;20454;-62
2023/08/16 04:11:07;;;;;;;7.97;7.27;;;17.70;99.90;;;;;;5067322;28;20454;-61
2023/08/16 04:13:34;;;;;;;8.63;6.97;;;17.70;99.90;;;;;;5068529;28;20581;-63
2023/08/16 04:16:01;;;;;;;8.03;7.07;;;17.70;99.90;;;;;;5067692;28;20851;-62
2023/08/16 04:18:30;;;;;;;8.93;7.80;;;17.80;99.90;;;;;;5068216;28;20482;-62
2023/08/16 04:20:57;;;;;;;11.57;9.40;;;17.80;99.90;;;;;;5067746;28;20895;-61
2023/08/16 04:23:24;;;;;;;12.13;10.93;;;17.80;99.90;;;;;;5068431;28;20827;-62
2023/08/16 04:25:51;;;;;;;10.30;9.30;;;17.80;99.90;;;;;;5067809;28;20461;-63
2023/08/16 04:28:18;;;;;;;15.17;9.73;;;17.90;99.90;;;;;;5068041;28;20458;-62
2023/08/16 04:30:45;;;;;;;10.10;9.10;;;17.90;99.90;;;;;;5068221;28;20450;-62
2023/08/16 04:33:11;;;;;;;11.70;10.57;;;17.90;99.90;;;;;;5068069;28;21088;-62
2023/08/16 04:35:40;;;;;;;12.53;11.33;;;18.00;99.90;;;;;;5068490;28;20455;-62
2023/08/16 04:38:06;;;;;;;12.30;11.10;;;18.00;99.90;;;;;;5067484;28;20467;-63
2023/08/16 04:40:33;;;;;;;15.77;10.30;;;18.00;99.90;;;;;;5068062;28;20458;-62
2023/08/16 04:43:00;;;;;;;14.97;12.20;;;18.00;99.90;;;;;;5067881;28;20470;-62
2023/08/16 04:45:27;;;;;;;13.43;12.03;;;18.00;99.90;;;;;;5068083;28;20461;-62
2023/08/16 04:47:54;;;;;;;24.97;12.90;;;18.00;99.90;;;;;;5066787;28;20454;-63
2023/08/16 04:50:21;;;;;;;13.57;12.17;;;18.00;99.90;;;;;;5068163;28;20450;-63
2023/08/16 04:52:49;;;;;;;14.50;12.00;;;18.00;99.90;;;;;;5068058;28;20478;-62
2023/08/16 04:55:16;;;;;;;17.07;12.50;;;18.10;99.90;;;;;;5067961;28;20449;-61
2023/08/16 04:57:43;;;;;;;12.67;11.47;;;18.10;99.90;;;;;;5067286;28;20446;-62
2023/08/16 05:00:11;;;;;;;33.23;13.87;;;18.20;99.90;;;;;;5067762;28;20457;-62
2023/08/16 05:02:38;;;;;;;15.37;11.93;;;18.20;99.90;;;;;;5068190;28;20520;-63
2023/08/16 05:05:06;;;;;;;14.13;12.00;;;18.20;99.90;;;;;;5075570;28;20440;-63
2023/08/16 05:07:32;;;;;;;14.50;11.60;;;18.30;99.90;;;;;;5086688;28;20453;-61
2023/08/16 05:10:01;;;;;;;15.03;12.37;;;18.30;99.90;;;;;;5087927;28;20452;-62
2023/08/16 05:12:27;;;;;;;22.33;15.57;;;18.40;99.90;;;;;;5087008;28;20584;-62
2023/08/16 05:14:54;;;;;;;17.53;14.73;;;18.40;99.90;;;;;;5087761;28;20477;-62
2023/08/16 05:17:21;;;;;;;16.40;14.73;;;18.30;99.90;;;;;;5087258;28;20452;-62
2023/08/16 05:19:48;;;;;;;14.80;13.20;;;18.40;99.90;;;;;;5087726;28;21129;-63
2023/08/16 05:22:15;;;;;;;16.70;13.17;;;18.50;99.90;;;;;;5087746;28;20555;-62
2023/08/16 05:24:42;;;;;;;13.50;11.73;;;18.50;99.90;;;;;;5087585;28;20507;-62
2023/08/16 05:27:12;;;;;;;18.97;13.47;;;18.50;99.90;;;;;;5087219;28;20817;-63
2023/08/16 05:29:39;;;;;;;22.70;14.27;;;18.60;99.90;;;;;;5087682;28;20553;-62
2023/08/16 05:32:06;;;;;;;16.17;13.93;;;18.70;99.90;;;;;;5089015;28;20480;-60
2023/08/16 05:34:33;;;;;;;18.87;14.80;;;18.70;99.90;;;;;;5091943;28;20493;-63
2023/08/16 05:37:00;;;;;;;16.93;13.20;;;18.70;99.90;;;;;;5091267;28;20454;-62
2023/08/16 05:39:27;;;;;;;14.27;12.87;;;18.80;99.90;;;;;;5091678;28;20540;-62
2023/08/16 05:41:54;;;;;;;15.37;12.93;;;18.80;99.90;;;;;;5092317;28;20495;-62
2023/08/16 05:44:22;;;;;;;14.43;13.10;;;18.90;99.90;;;;;;5092060;28;20445;-61
2023/08/16 05:46:49;;;;;;;16.17;12.73;;;18.90;99.90;;;;;;5090920;28;20548;-62
2023/08/16 05:49:16;;;;;;;17.30;14.27;;;19.00;99.90;;;;;;5091491;28;20453;-62
2023/08/16 05:51:42;;;;;;;14.80;13.27;;;19.00;99.90;;;;;;5091381;28;20466;-61
2023/08/16 05:54:09;;;;;;;16.83;13.10;;;19.10;99.90;;;;;;5091559;28;20495;-62
2023/08/16 05:56:37;;;;;;;16.60;13.47;;;19.10;99.90;;;;;;5090892;28;20884;-62
2023/08/16 05:59:04;;;;;;;12.30;11.30;;;19.20;99.90;;;;;;5090829;28;21030;-62
2023/08/16 06:01:33;;;;;;;13.73;12.30;;;19.30;99.90;;;;;;5091312;28;20477;-62
2023/08/16 06:03:59;;;;;;;12.13;11.03;;;19.40;99.90;;;;;;5091584;28;20947;-63
2023/08/16 06:06:26;;;;;;;15.53;12.00;;;19.40;99.90;;;;;;5090688;28;20458;-63
2023/08/16 06:08:53;;;;;;;14.13;12.73;;;19.50;99.90;;;;;;5091706;28;20457;-62
2023/08/16 06:11:20;;;;;;;13.90;12.50;;;19.70;99.90;;;;;;5090909;28;20469;-61
2023/08/16 06:13:47;;;;;;;11.50;10.30;;;19.80;99.90;;;;;;5089115;28;20865;-62
2023/08/16 06:16:14;;;;;;;11.53;10.53;;;20.00;99.90;;;;;;5090358;28;20446;-62
2023/08/16 06:18:42;;;;;;;11.20;10.30;;;20.10;99.90;;;;;;5091133;28;20549;-63
2023/08/16 06:21:09;;;;;;;11.57;10.60;;;20.30;99.90;;;;;;5090897;28;20450;-63
2023/08/16 06:23:36;;;;;;;10.83;10.00;;;20.50;99.90;;;;;;5091267;28;20450;-63
2023/08/16 06:26:02;;;;;;;10.43;9.53;;;20.70;99.90;;;;;;5090245;28;20455;-63
2023/08/16 06:28:29;;;;;;;10.80;10.00;;;20.90;99.90;;;;;;5090725;28;20480;-63
2023/08/16 06:30:56;;;;;;;9.23;8.53;;;21.10;99.90;;;;;;5090760;28;20571;-63
2023/08/16 06:33:23;;;;;;;8.90;8.20;;;21.20;99.90;;;;;;5090558;28;20532;-63
2023/08/16 06:35:52;;;;;;;9.23;8.63;;;21.30;99.90;;;;;;5090730;28;20447;-65
2023/08/16 06:38:19;;;;;;;8.47;7.77;;;21.50;99.90;;;;;;5090651;28;20449;-63
2023/08/16 06:40:46;;;;;;;9.00;8.20;;;21.60;99.90;;;;;;5090234;28;20995;-63
2023/08/16 06:43:13;;;;;;;8.03;7.43;;;21.80;99.90;;;;;;5086349;28;20478;-64
2023/08/16 06:45:40;;;;;;;7.80;7.20;;;21.90;99.90;;;;;;5089971;28;20448;-64
2023/08/16 06:48:07;;;;;;;9.07;8.37;;;22.10;99.90;;;;;;5085949;28;20532;-64
2023/08/16 06:50:34;;;;;;;8.27;7.53;;;22.20;99.90;;;;;;5089528;28;20481;-64
2023/08/16 06:53:02;;;;;;;6.83;6.23;;;22.40;99.90;;;;;;5089123;28;20846;-63
2023/08/16 06:55:29;;;;;;;9.53;7.30;;;22.50;99.90;;;;;;5089056;28;20569;-64
2023/08/16 06:57:56;;;;;;;7.70;6.80;;;22.60;99.90;;;;;;5088769;28;20460;-65
2023/08/16 07:00:23;;;;;;;16.63;12.00;;;22.70;99.90;;;;;;5089901;28;20450;-64
2023/08/16 07:02:50;;;;;;;11.60;9.20;;;22.80;99.90;;;;;;5089287;28;20467;-64
2023/08/16 07:05:17;;;;;;;8.23;7.33;;;22.90;99.90;;;;;;5089705;28;20806;-64
2023/08/16 07:07:44;;;;;;;9.17;8.17;;;23.10;99.90;;;;;;5088810;28;20442;-64
2023/08/16 07:10:12;;;;;;;8.40;7.70;;;23.10;99.90;;;;;;5088759;28;20885;-63
2023/08/16 07:12:39;;;;;;;7.70;6.90;;;23.10;99.90;;;;;;5089597;28;20553;-63
2023/08/16 07:15:07;;;;;;;8.57;7.87;;;23.10;99.90;;;;;;5089723;28;20499;-63
2023/08/16 07:17:33;;;;;;;8.63;7.90;;;23.10;99.90;;;;;;5088902;28;20472;-63
2023/08/16 07:20:00;;;;;;;7.50;6.80;;;23.20;99.90;;;;;;5089034;28;20457;-63
2023/08/16 07:22:27;;;;;;;8.73;8.03;;;23.30;99.90;;;;;;5089269;28;20543;-63
2023/08/16 07:24:54;;;;;;;7.57;6.97;;;23.50;99.90;;;;;;5089175;28;20451;-63
2023/08/16 07:27:23;;;;;;;9.80;8.63;;;23.70;99.90;;;;;;5088615;28;20972;-63
2023/08/16 07:29:50;;;;;;;8.10;7.40;;;23.90;99.90;;;;;;5087623;28;20585;-64
2023/08/16 07:32:17;;;;;;;8.67;7.80;;;24.00;99.90;;;;;;5088729;28;20477;-63
2023/08/16 07:34:44;;;;;;;8.47;7.70;;;24.10;99.90;;;;;;5088164;28;20490;-63
2023/08/16 07:37:13;;;;;;;8.20;7.60;;;24.10;99.90;;;;;;5088125;28;20801;-63
2023/08/16 07:39:40;;;;;;;7.70;7.10;;;24.20;99.90;;;;;;5087781;28;20547;-63
2023/08/16 07:42:07;;;;;;;8.57;7.77;;;24.30;99.90;;;;;;5088828;28;20469;-63
2023/08/16 07:44:36;;;;;;;7.27;6.60;;;24.30;99.90;;;;;;5088038;28;20447;-63
2023/08/16 07:47:03;;;;;;;7.57;6.90;;;24.30;99.90;;;;;;5079176;28;20451;-63
2023/08/16 07:49:31;;;;;;;8.07;7.40;;;24.20;99.90;;;;;;5087552;28;20533;-64
2023/08/16 07:51:58;;;;;;;7.23;6.73;;;24.10;99.90;;;;;;5088233;28;20469;-63
2023/08/16 07:54:25;;;;;;;7.60;6.83;;;24.10;99.90;;;;;;5088284;28;20943;-64
2023/08/16 07:56:52;;;;;;;7.07;6.57;;;24.00;99.90;;;;;;5085932;28;20461;-63
2023/08/16 07:59:19;;;;;;;7.20;6.60;;;24.00;99.90;;;;;;5087402;28;20454;-63
2023/08/16 08:01:48;;;;;;;8.90;8.10;;;23.90;99.90;;;;;;5087851;28;20856;-64
2023/08/16 08:04:14;;;;;;;8.40;7.70;;;23.80;99.90;;;;;;5087541;28;20516;-63
2023/08/16 08:06:41;;;;;;;8.17;7.57;;;23.70;99.90;;;;;;5087335;28;20443;-63
2023/08/16 08:09:08;;;;;;;7.00;6.40;;;23.70;99.90;;;;;;5086625;28;20462;-63
2023/08/16 08:11:35;;;;;;;7.80;7.20;;;23.70;99.90;;;;;;5087320;28;20467;-63
2023/08/16 08:14:02;;;;;;;7.93;7.23;;;23.70;99.90;;;;;;5080803;28;20537;-63
2023/08/16 08:16:29;;;;;;;8.90;8.20;;;23.70;99.90;;;;;;5084988;28;20465;-63
2023/08/16 08:18:57;;;;;;;8.20;7.70;;;23.70;99.90;;;;;;5087379;28;20454;-64
2023/08/16 08:21:24;;;;;;;7.97;7.37;;;23.80;99.90;;;;;;5086194;28;21002;-64
2023/08/16 08:23:51;;;;;;;8.50;7.80;;;23.80;99.90;;;;;;5087641;28;20534;-64
2023/08/16 08:26:18;;;;;;;8.70;8.10;;;23.90;99.90;;;;;;5086936;28;20446;-63
2023/08/16 08:28:46;;;;;;;8.60;7.80;;;24.00;99.90;;;;;;5076301;28;20453;-63
2023/08/16 08:31:12;;;;;;;9.00;8.10;;;24.10;99.90;;;;;;5087503;28;20473;-63
2023/08/16 08:33:39;;;;;;;9.30;8.50;;;24.20;99.90;;;;;;5079694;28;20446;-63
2023/08/16 08:36:07;;;;;;;9.33;8.63;;;24.30;99.90;;;;;;5086496;28;20581;-63
2023/08/16 08:38:35;;;;;;;10.60;9.60;;;24.30;99.90;;;;;;5082297;28;20456;-64
2023/08/16 08:41:02;;;;;;;8.53;7.93;;;24.30;99.90;;;;;;5084396;28;20455;-63
2023/08/16 08:43:33;;;;;;;9.53;8.83;;;24.30;99.90;;;;;;5087771;28;20451;-63
2023/08/16 08:46:01;;;;;;;9.77;8.77;;;24.40;99.90;;;;;;5085839;28;20453;-64
2023/08/16 08:48:28;;;;;;;8.77;8.17;;;24.40;99.90;;;;;;5079186;28;20475;-63
2023/08/16 08:50:56;;;;;;;10.60;9.80;;;24.50;99.90;;;;;;5072303;28;20449;-63
2023/08/16 08:53:25;;;;;;;9.07;8.23;;;24.60;99.90;;;;;;5079789;28;20550;-63
2023/08/16 08:55:53;;;;;;;8.70;8.10;;;24.70;99.90;;;;;;5066916;28;20479;-63
2023/08/16 08:58:21;;;;;;;8.70;8.10;;;24.80;99.90;;;;;;5067138;28;20530;-64
2023/08/16 09:00:49;;;;;;;9.70;8.80;;;25.00;99.90;;;;;;5079700;28;20462;-63
2023/08/16 09:03:19;;;;;;;8.87;8.20;;;25.10;99.90;;;;;;5072533;28;20922;-63
2023/08/16 09:05:47;;;;;;;9.27;8.47;;;25.30;99.90;;;;;;5074361;28;20431;-65
2023/08/16 09:08:16;;;;;;;8.43;7.87;;;25.40;99.90;;;;;;5086515;28;20554;-64
2023/08/16 09:10:44;;;;;;;8.30;7.60;;;25.50;99.90;;;;;;5086694;28;21041;-63
2023/08/16 09:13:13;;;;;;;8.60;8.00;;;25.70;99.90;;;;;;5087118;28;20481;-63
2023/08/16 09:15:40;;;;;;;10.07;8.77;;;25.80;99.90;;;;;;5086897;28;20484;-63
2023/08/16 09:18:11;;;;;;;7.77;7.03;;;26.00;99.90;;;;;;5085919;28;20937;-63
2023/08/16 09:20:39;;;;;;;8.80;8.00;;;26.20;99.90;;;;;;5085291;28;20851;-64
2023/08/16 09:23:06;;;;;;;6.60;6.20;;;26.30;99.90;;;;;;5087353;28;20477;-64
2023/08/16 09:25:33;;;;;;;7.77;7.00;;;26.40;99.90;;;;;;5087157;28;20449;-64
2023/08/16 09:28:01;;;;;;;6.67;6.17;;;26.50;99.90;;;;;;5086271;28;20446;-63
2023/08/16 09:30:28;;;;;;;7.37;6.67;;;26.60;99.90;;;;;;5086686;28;20446;-63
2023/08/16 09:32:55;;;;;;;6.73;6.13;;;26.70;99.90;;;;;;5078553;28;20564;-62
2023/08/16 09:35:28;;;;;;;8.33;7.73;;;26.70;99.90;;;;;;5086717;28;20873;-63
2023/08/16 09:37:57;;;;;;;7.10;6.60;;;26.80;99.90;;;;;;5085719;28;20979;-64
2023/08/16 09:40:24;;;;;;;6.60;6.00;;;26.80;99.90;;;;;;5090686;28;20454;-64
2023/08/16 09:42:51;;;;;;;6.00;5.50;;;26.90;99.90;;;;;;5084998;28;20562;-64
2023/08/16 09:45:28;;;;;;;5.20;4.80;;;26.90;99.90;;;;;;5086065;28;21001;-63
2023/08/16 09:47:55;;;;;;;5.23;4.73;;;27.00;99.90;;;;;;5084854;28;20437;-64
2023/08/16 09:50:24;;;;;;;4.80;4.50;;;27.00;99.90;;;;;;5085163;28;20455;-64
2023/08/16 09:52:51;;;;;;;4.80;4.50;;;27.00;99.90;;;;;;5085621;28;21155;-64
2023/08/16 09:55:26;;;;;;;4.97;4.57;;;27.00;99.90;;;;;;5086113;28;20480;-64
2023/08/16 09:57:53;;;;;;;6.10;5.50;;;27.10;99.90;;;;;;5085566;28;20525;-64
2023/08/16 10:00:22;;;;;;;4.90;4.47;;;27.10;99.90;;;;;;5086361;28;20445;-63
2023/08/16 10:02:51;;;;;;;5.63;5.13;;;27.20;99.90;;;;;;5085320;28;20524;-63
2023/08/16 10:05:18;;;;;;;6.10;5.70;;;27.30;99.90;;;;;;5086253;28;20446;-64
2023/08/16 10:07:47;;;;;;;5.77;5.47;;;27.30;99.90;;;;;;5085425;28;20532;-63
2023/08/16 10:10:14;;;;;;;5.40;5.00;;;27.30;99.90;;;;;;5086018;28;20448;-65
2023/08/16 10:12:41;;;;;;;5.27;4.87;;;27.40;99.90;;;;;;5085640;28;20467;-65
2023/08/16 10:15:09;;;;;;;6.37;3.80;;;27.50;99.90;;;;;;5086058;28;20578;-65
2023/08/16 10:17:39;;;;;;;4.43;4.13;;;27.50;99.90;;;;;;5084843;28;20538;-65
2023/08/16 10:20:22;;;;;;;5.83;3.10;;;27.60;99.90;;;;;;5088917;28;20451;-64
2023/08/16 10:22:56;;;;;;;2.60;2.50;;;27.60;99.90;;;;;;5089080;28;20573;-64
2023/08/16 10:25:25;;;;;;;3.60;2.90;;;27.60;99.90;;;;;;5089721;28;20440;-64
2023/08/16 10:27:55;;;;;;;4.47;4.10;;;27.60;99.90;;;;;;5088791;28;20454;-64
2023/08/16 10:30:25;;;;;;;3.57;3.37;;;27.50;99.90;;;;;;5089674;28;20436;-64
2023/08/16 10:32:58;;;;;;;4.13;3.73;;;27.50;99.90;;;;;;5087008;28;20470;-64
2023/08/16 10:35:27;;;;;;;3.97;3.67;;;27.50;99.90;;;;;;5085506;28;20484;-64
2023/08/16 10:37:57;;;;;;;4.80;4.40;;;27.50;99.90;;;;;;5087930;28;20446;-65
2023/08/16 10:40:24;;;;;;;4.23;3.83;;;27.50;99.90;;;;;;5089625;28;20534;-64
2023/08/16 10:42:55;;;;;;;4.57;4.27;;;27.40;99.90;;;;;;5087818;28;20533;-65
2023/08/16 10:45:26;;;;;;;4.70;4.40;;;27.50;99.90;;;;;;5089545;28;20550;-63
2023/08/16 10:47:53;;;;;;;4.27;4.03;;;27.40;99.90;;;;;;5088611;28;20452;-64
2023/08/16 10:50:20;;;;;;;4.10;3.87;;;27.40;99.90;;;;;;5089464;28;20528;-65
2023/08/16 10:52:50;;;;;;;4.50;4.10;;;27.40;99.90;;;;;;5088796;28;20464;-64
2023/08/16 10:55:25;;;;;;;5.60;5.00;;;27.30;99.90;;;;;;5089258;28;20495;-64
2023/08/16 10:57:53;;;;;;;5.47;4.97;;;27.30;99.90;;;;;;5088763;28;20849;-63
2023/08/16 11:00:20;;;;;;;5.30;5.00;;;27.30;99.90;;;;;;5089568;28;20440;-63
2023/08/16 11:02:50;;;;;;;5.67;5.20;;;27.20;99.90;;;;;;5089189;28;20459;-63
2023/08/16 11:05:19;;;;;;;8.23;5.90;;;27.30;99.90;;;;;;5089428;28;20471;-63
2023/08/16 11:07:46;;;;;;;5.00;4.70;;;27.30;99.90;;;;;;5088197;28;20448;-63
2023/08/16 11:10:14;;;;;;;5.03;4.67;;;27.30;99.90;;;;;;5089135;28;20444;-63
2023/08/16 11:12:41;;;;;;;4.70;4.40;;;27.40;99.90;;;;;;5088862;28;20917;-63
2023/08/16 11:15:09;;;;;;;4.80;4.50;;;27.60;99.90;;;;;;5089085;28;20580;-64
2023/08/16 11:17:42;;;;;;;5.33;4.93;;;27.70;99.90;;;;;;5090620;28;20452;-65
2023/08/16 11:20:12;;;;;;;5.20;4.30;;;27.70;99.90;;;;;;5088286;28;20452;-64
2023/08/16 11:22:39;;;;;;;5.10;4.77;;;27.80;99.90;;;;;;5088480;28;20586;-64
2023/08/16 11:25:09;;;;;;;5.40;5.00;;;27.80;99.90;;;;;;5088690;28;20456;-65
2023/08/16 11:27:38;;;;;;;5.27;4.87;;;27.90;99.90;;;;;;5086851;28;20466;-64
2023/08/16 11:30:07;;;;;;;5.63;5.23;;;28.00;99.90;;;;;;5087774;28;20454;-65
2023/08/16 11:32:36;;;;;;;6.20;5.20;;;28.10;99.90;;;;;;5087963;28;20504;-63
2023/08/16 11:35:08;;;;;;;6.63;6.23;;;28.20;99.90;;;;;;5088019;28;20834;-65
2023/08/16 11:37:35;;;;;;;6.43;5.93;;;28.40;99.90;;;;;;5086608;28;20942;-65
2023/08/16 11:40:04;;;;;;;5.07;4.67;;;28.40;99.90;;;;;;5087428;28;20445;-65
2023/08/16 11:42:31;;;;;;;4.87;4.37;;;28.50;99.90;;;;;;5087534;28;20850;-64
2023/08/16 11:45:00;;;;;;;5.60;5.20;;;28.60;99.90;;;;;;5085579;28;20529;-64
2023/08/16 11:47:27;;;;;;;4.83;4.40;;;28.60;99.90;;;;;;5087334;28;20476;-64
2023/08/16 11:49:54;;;;;;;5.40;5.00;;;28.70;99.90;;;;;;5087553;28;20445;-65
2023/08/16 11:52:22;;;;;;;5.40;5.00;;;28.70;99.90;;;;;;5088172;28;20544;-65
2023/08/16 11:55:00;;;;;;;4.53;4.23;;;28.90;99.90;;;;;;5087655;28;20455;-65
2023/08/16 11:57:27;;;;;;;5.27;4.80;;;29.00;99.90;;;;;;5086869;28;20452;-66
2023/08/16 11:59:56;;;;;;;5.50;4.50;;;29.10;99.90;;;;;;5087124;28;20530;-64
2023/08/16 12:02:25;;;;;;;6.67;4.73;;;29.20;99.90;;;;;;5087684;28;20458;-64
2023/08/16 12:04:52;;;;;;;5.50;5.10;;;29.30;99.90;;;;;;5086846;28;20843;-64
2023/08/16 12:07:19;;;;;;;4.33;4.10;;;29.40;99.80;;;;;;5086596;28;20467;-64
2023/08/16 12:09:48;;;;;;;4.67;4.33;;;29.40;98.60;;;;;;5086805;28;20448;-64
2023/08/16 12:12:15;;;;;;;5.90;4.60;;;29.40;99.60;;;;;;5087056;28;20469;-64
2023/08/16 12:14:42;;;;;;;4.73;4.43;;;29.30;98.70;;;;;;5086745;28;20449;-64
2023/08/16 12:17:09;;;;;;;4.53;4.10;;;29.20;99.60;;;;;;5086017;28;20521;-64
2023/08/16 12:19:37;;;;;;;4.37;4.07;;;29.10;99.40;;;;;;5087008;28;20887;-65
2023/08/16 12:22:04;;;;;;;3.60;3.30;;;29.20;99.90;;;;;;5086369;28;20462;-65
2023/08/16 12:24:31;;;;;;;4.00;3.70;;;29.40;99.90;;;;;;5087032;28;20614;-65
2023/08/16 12:26:58;;;;;;;6.30;4.20;;;29.60;99.90;;;;;;5086134;28;20446;-64
2023/08/16 12:29:26;;;;;;;5.87;4.60;;;29.80;99.70;;;;;;5085589;28;20442;-64
2023/08/16 12:31:53;;;;;;;5.07;4.67;;;29.90;98.80;;;;;;5086540;28;20511;-64
2023/08/16 12:34:20;;;;;;;6.33;3.97;;;30.00;99.50;;;;;;5086886;28;20435;-65
2023/08/16 12:36:48;;;;;;;4.27;3.87;;;30.20;98.50;;;;;;5086315;28;20494;-64
2023/08/16 12:39:15;;;;;;;4.50;4.10;;;30.30;97.40;;;;;;5086161;28;20448;-64
2023/08/16 12:41:42;;;;;;;4.27;3.97;;;30.40;95.70;;;;;;5085598;28;21060;-64
2023/08/16 12:44:10;;;;;;;4.23;3.93;;;30.50;96.20;;;;;;5086424;28;20455;-64